sensor_id;sensor_type;location;lat;lon;timestamp;temperature;humidity
38428;DHT22;24211;49.980;19.776;2022-12-11T00:00:52;3.30;99.90
38428;DHT22;24211;49.980;19.776;2022-12-11T00:03:39;3.40;99.90
38428;DHT22;24211;49.980;19.776;2022-12-11T00:06:10;3.40;99.90
38428;DHT22;24211;49.980;19.776;2022-12-11T00:08:39;3.40;99.90
38428;DHT22;24211;49.980;19.776;2022-12-11T00:11:08;3.40;99.90
38428;DHT22;24211;49.980;19.776;2022-12-11T00:13:37;3.40;99.90
38428;DHT22;24211;49.980;19.776;2022-12-11T00:16:05;3.40;99.90
38428;DHT22;24211;49.980;19.776;2022-12-11T00:18:32;3.40;99.90
38428;DHT22;24211;49.980;19.776;2022-12-11T00:21:00;3.50;99.90
38428;DHT22;24211;49.980;19.776;2022-12-11T00:23:28;3.50;99.90
38428;DHT22;24211;49.980;19.776;2022-12-11T00:25:56;3.50;99.90
38428;DHT22;24211;49.980;19.776;2022-12-11T00:28:24;3.50;99.90
38428;DHT22;24211;49.980;19.776;2022-12-11T00:30:51;3.50;99.90
38428;DHT22;24211;49.980;19.776;2022-12-11T00:33:18;3.50;99.90
38428;DHT22;24211;49.980;19.776;2022-12-11T00:35:46;3.60;99.90
38428;DHT22;24211;49.980;19.776;2022-12-11T00:38:15;3.60;99.90
38428;DHT22;24211;49.980;19.776;2022-12-11T00:40:44;3.50;99.90
38428;DHT22;24211;49.980;19.776;2022-12-11T00:43:11;3.60;99.90
38428;DHT22;24211;49.980;19.776;2022-12-11T00:45:43;3.60;99.90
38428;DHT22;24211;49.980;19.776;2022-12-11T00:48:12;3.60;99.90
38428;DHT22;24211;49.980;19.776;2022-12-11T00:50:41;3.60;99.90
38428;DHT22;24211;49.980;19.776;2022-12-11T00:53:08;3.60;99.90
38428;DHT22;24211;49.980;19.776;2022-12-11T00:55:37;3.60;99.90
38428;DHT22;24211;49.980;19.776;2022-12-11T00:58:06;3.60;99.90
38428;DHT22;24211;49.980;19.776;2022-12-11T01:00:34;3.60;99.90
38428;DHT22;24211;49.980;19.776;2022-12-11T01:03:01;3.60;99.90
38428;DHT22;24211;49.980;19.776;2022-12-11T01:05:29;3.60;99.90
38428;DHT22;24211;49.980;19.776;2022-12-11T01:07:57;3.60;99.90
38428;DHT22;24211;49.980;19.776;2022-12-11T01:10:25;3.60;99.90
38428;DHT22;24211;49.980;19.776;2022-12-11T01:12:55;3.50;99.90
38428;DHT22;24211;49.980;19.776;2022-12-11T01:15:30;3.60;99.90
38428;DHT22;24211;49.980;19.776;2022-12-11T01:18:15;3.60;99.90
38428;DHT22;24211;49.980;19.776;2022-12-11T01:20:42;3.60;99.90
38428;DHT22;24211;49.980;19.776;2022-12-11T01:23:11;3.60;99.90
38428;DHT22;24211;49.980;19.776;2022-12-11T01:26:05;3.60;99.90
38428;DHT22;24211;49.980;19.776;2022-12-11T01:31:56;3.60;99.90
38428;DHT22;24211;49.980;19.776;2022-12-11T01:34:23;3.60;99.90
38428;DHT22;24211;49.980;19.776;2022-12-11T01:40:37;3.60;99.90
38428;DHT22;24211;49.980;19.776;2022-12-11T01:43:04;3.60;99.90
38428;DHT22;24211;49.980;19.776;2022-12-11T01:45:33;3.60;99.90
38428;DHT22;24211;49.980;19.776;2022-12-11T01:48:08;3.60;99.90
38428;DHT22;24211;49.980;19.776;2022-12-11T01:50:51;3.60;99.90
38428;DHT22;24211;49.980;19.776;2022-12-11T01:53:26;3.60;99.90
38428;DHT22;24211;49.980;19.776;2022-12-11T01:55:58;3.60;99.90
38428;DHT22;24211;49.980;19.776;2022-12-11T01:58:37;3.60;99.90
38428;DHT22;24211;49.980;19.776;2022-12-11T02:01:11;3.60;99.90
38428;DHT22;24211;49.980;19.776;2022-12-11T02:03:45;3.60;99.90
38428;DHT22;24211;49.980;19.776;2022-12-11T02:09:14;3.60;99.90
38428;DHT22;24211;49.980;19.776;2022-12-11T02:11:59;3.60;99.90
38428;DHT22;24211;49.980;19.776;2022-12-11T02:17:34;3.60;99.90
38428;DHT22;24211;49.980;19.776;2022-12-11T02:20:17;3.60;99.90
38428;DHT22;24211;49.980;19.776;2022-12-11T02:23:12;3.60;99.90
38428;DHT22;24211;49.980;19.776;2022-12-11T02:26:19;3.60;99.90
38428;DHT22;24211;49.980;19.776;2022-12-11T02:29:02;3.60;99.90
38428;DHT22;24211;49.980;19.776;2022-12-11T02:31:44;3.60;99.90
38428;DHT22;24211;49.980;19.776;2022-12-11T02:34:22;3.60;99.90
38428;DHT22;24211;49.980;19.776;2022-12-11T02:37:19;3.50;99.90
38428;DHT22;24211;49.980;19.776;2022-12-11T02:39:50;3.50;99.90
38428;DHT22;24211;49.980;19.776;2022-12-11T02:42:22;3.50;99.90
38428;DHT22;24211;49.980;19.776;2022-12-11T02:44:54;3.50;99.90
38428;DHT22;24211;49.980;19.776;2022-12-11T02:47:26;3.50;99.90
38428;DHT22;24211;49.980;19.776;2022-12-11T02:49:59;3.50;99.90
38428;DHT22;24211;49.980;19.776;2022-12-11T02:52:30;3.50;99.90
38428;DHT22;24211;49.980;19.776;2022-12-11T02:55:00;3.50;99.90
38428;DHT22;24211;49.980;19.776;2022-12-11T02:57:41;3.60;99.90
38428;DHT22;24211;49.980;19.776;2022-12-11T03:00:12;3.60;99.90
38428;DHT22;24211;49.980;19.776;2022-12-11T03:02:40;3.60;99.90
38428;DHT22;24211;49.980;19.776;2022-12-11T03:05:10;3.60;99.90
38428;DHT22;24211;49.980;19.776;2022-12-11T03:07:41;3.60;99.90
38428;DHT22;24211;49.980;19.776;2022-12-11T03:10:13;3.60;99.90
38428;DHT22;24211;49.980;19.776;2022-12-11T03:12:47;3.60;99.90
38428;DHT22;24211;49.980;19.776;2022-12-11T03:15:24;3.60;99.90
38428;DHT22;24211;49.980;19.776;2022-12-11T03:18:05;3.50;99.90
38428;DHT22;24211;49.980;19.776;2022-12-11T03:20:46;3.60;99.90
38428;DHT22;24211;49.980;19.776;2022-12-11T03:23:30;3.60;99.90
38428;DHT22;24211;49.980;19.776;2022-12-11T03:26:05;3.60;99.90
38428;DHT22;24211;49.980;19.776;2022-12-11T03:28:54;3.60;99.90
38428;DHT22;24211;49.980;19.776;2022-12-11T03:31:55;3.50;99.90
38428;DHT22;24211;49.980;19.776;2022-12-11T03:34:30;3.50;99.90
38428;DHT22;24211;49.980;19.776;2022-12-11T03:37:05;3.60;99.90
38428;DHT22;24211;49.980;19.776;2022-12-11T03:39:40;3.50;99.90
38428;DHT22;24211;49.980;19.776;2022-12-11T03:42:22;3.50;99.90
38428;DHT22;24211;49.980;19.776;2022-12-11T03:44:53;3.50;99.90
38428;DHT22;24211;49.980;19.776;2022-12-11T03:47:24;3.50;99.90
38428;DHT22;24211;49.980;19.776;2022-12-11T03:49:55;3.60;99.90
38428;DHT22;24211;49.980;19.776;2022-12-11T03:52:26;3.50;99.90
38428;DHT22;24211;49.980;19.776;2022-12-11T03:54:59;3.60;99.90
38428;DHT22;24211;49.980;19.776;2022-12-11T03:57:30;3.60;99.90
38428;DHT22;24211;49.980;19.776;2022-12-11T04:00:04;3.60;99.90
38428;DHT22;24211;49.980;19.776;2022-12-11T04:02:37;3.60;99.90
38428;DHT22;24211;49.980;19.776;2022-12-11T04:05:06;3.60;99.90
38428;DHT22;24211;49.980;19.776;2022-12-11T04:07:34;3.60;99.90
38428;DHT22;24211;49.980;19.776;2022-12-11T04:10:04;3.70;99.90
38428;DHT22;24211;49.980;19.776;2022-12-11T04:12:31;3.60;99.90
38428;DHT22;24211;49.980;19.776;2022-12-11T04:14:58;3.60;99.90
38428;DHT22;24211;49.980;19.776;2022-12-11T04:17:33;3.60;99.90
38428;DHT22;24211;49.980;19.776;2022-12-11T04:20:21;3.60;99.90
38428;DHT22;24211;49.980;19.776;2022-12-11T04:23:15;3.60;99.90
38428;DHT22;24211;49.980;19.776;2022-12-11T04:26:28;3.60;99.90
38428;DHT22;24211;49.980;19.776;2022-12-11T04:28:55;3.60;99.90
38428;DHT22;24211;49.980;19.776;2022-12-11T04:31:23;3.60;99.90
38428;DHT22;24211;49.980;19.776;2022-12-11T04:33:50;3.60;99.90
38428;DHT22;24211;49.980;19.776;2022-12-11T04:36:17;3.60;99.90
38428;DHT22;24211;49.980;19.776;2022-12-11T04:38:44;3.60;99.90
38428;DHT22;24211;49.980;19.776;2022-12-11T04:41:14;3.50;99.90
38428;DHT22;24211;49.980;19.776;2022-12-11T04:43:42;3.50;99.90
38428;DHT22;24211;49.980;19.776;2022-12-11T04:46:12;3.50;99.90
38428;DHT22;24211;49.980;19.776;2022-12-11T04:48:39;3.50;99.90
38428;DHT22;24211;49.980;19.776;2022-12-11T04:51:07;3.50;99.90
38428;DHT22;24211;49.980;19.776;2022-12-11T04:53:36;3.50;99.90
38428;DHT22;24211;49.980;19.776;2022-12-11T04:56:05;3.60;99.90
38428;DHT22;24211;49.980;19.776;2022-12-11T04:58:36;3.60;99.90
38428;DHT22;24211;49.980;19.776;2022-12-11T05:01:08;3.60;99.90
38428;DHT22;24211;49.980;19.776;2022-12-11T05:03:42;3.60;99.90
38428;DHT22;24211;49.980;19.776;2022-12-11T05:06:10;3.60;99.90
38428;DHT22;24211;49.980;19.776;2022-12-11T05:08:40;3.60;99.90
38428;DHT22;24211;49.980;19.776;2022-12-11T05:11:10;3.70;99.90
38428;DHT22;24211;49.980;19.776;2022-12-11T05:13:39;3.60;99.90
38428;DHT22;24211;49.980;19.776;2022-12-11T05:16:25;3.60;99.90
38428;DHT22;24211;49.980;19.776;2022-12-11T05:19:27;3.60;99.90
38428;DHT22;24211;49.980;19.776;2022-12-11T05:21:54;3.60;99.90
38428;DHT22;24211;49.980;19.776;2022-12-11T05:24:21;3.60;99.90
38428;DHT22;24211;49.980;19.776;2022-12-11T05:26:49;3.60;99.90
38428;DHT22;24211;49.980;19.776;2022-12-11T05:29:16;3.60;99.90
38428;DHT22;24211;49.980;19.776;2022-12-11T05:31:43;3.50;99.90
38428;DHT22;24211;49.980;19.776;2022-12-11T05:34:10;3.50;99.90
38428;DHT22;24211;49.980;19.776;2022-12-11T05:36:37;3.60;99.90
38428;DHT22;24211;49.980;19.776;2022-12-11T05:39:04;3.60;99.90
38428;DHT22;24211;49.980;19.776;2022-12-11T05:41:32;3.60;99.90
38428;DHT22;24211;49.980;19.776;2022-12-11T05:43:59;3.60;99.90
38428;DHT22;24211;49.980;19.776;2022-12-11T05:46:28;3.60;99.90
38428;DHT22;24211;49.980;19.776;2022-12-11T05:48:59;3.60;99.90
38428;DHT22;24211;49.980;19.776;2022-12-11T05:51:28;3.60;99.90
38428;DHT22;24211;49.980;19.776;2022-12-11T05:53:56;3.60;99.90
38428;DHT22;24211;49.980;19.776;2022-12-11T05:56:29;3.60;99.90
38428;DHT22;24211;49.980;19.776;2022-12-11T05:58:59;3.60;99.90
38428;DHT22;24211;49.980;19.776;2022-12-11T06:01:40;3.60;99.90
38428;DHT22;24211;49.980;19.776;2022-12-11T06:04:10;3.60;99.90
38428;DHT22;24211;49.980;19.776;2022-12-11T06:06:38;3.60;99.90
38428;DHT22;24211;49.980;19.776;2022-12-11T06:09:06;3.60;99.90
38428;DHT22;24211;49.980;19.776;2022-12-11T06:11:35;3.60;99.90
38428;DHT22;24211;49.980;19.776;2022-12-11T06:14:03;3.60;99.90
38428;DHT22;24211;49.980;19.776;2022-12-11T06:16:30;3.60;99.90
38428;DHT22;24211;49.980;19.776;2022-12-11T06:18:58;3.60;99.90
38428;DHT22;24211;49.980;19.776;2022-12-11T06:21:30;3.60;99.90
38428;DHT22;24211;49.980;19.776;2022-12-11T06:24:00;3.60;99.90
38428;DHT22;24211;49.980;19.776;2022-12-11T06:26:29;3.60;99.90
38428;DHT22;24211;49.980;19.776;2022-12-11T06:28:58;3.60;99.90
38428;DHT22;24211;49.980;19.776;2022-12-11T06:31:26;3.60;99.90
38428;DHT22;24211;49.980;19.776;2022-12-11T06:33:54;3.60;99.90
38428;DHT22;24211;49.980;19.776;2022-12-11T06:36:22;3.60;99.90
38428;DHT22;24211;49.980;19.776;2022-12-11T06:38:51;3.60;99.90
38428;DHT22;24211;49.980;19.776;2022-12-11T06:41:18;3.60;99.90
38428;DHT22;24211;49.980;19.776;2022-12-11T06:43:45;3.70;99.90
38428;DHT22;24211;49.980;19.776;2022-12-11T06:46:15;3.70;99.90
38428;DHT22;24211;49.980;19.776;2022-12-11T06:48:45;3.70;99.90
38428;DHT22;24211;49.980;19.776;2022-12-11T06:51:20;3.70;99.90
38428;DHT22;24211;49.980;19.776;2022-12-11T06:53:55;3.70;99.90
38428;DHT22;24211;49.980;19.776;2022-12-11T06:56:36;3.70;99.90
38428;DHT22;24211;49.980;19.776;2022-12-11T06:59:33;3.70;99.90
38428;DHT22;24211;49.980;19.776;2022-12-11T07:02:31;3.70;99.90
38428;DHT22;24211;49.980;19.776;2022-12-11T07:04:58;3.70;99.90
38428;DHT22;24211;49.980;19.776;2022-12-11T07:07:36;3.70;99.90
38428;DHT22;24211;49.980;19.776;2022-12-11T07:10:18;3.70;99.90
38428;DHT22;24211;49.980;19.776;2022-12-11T07:12:45;3.70;99.90
38428;DHT22;24211;49.980;19.776;2022-12-11T07:15:12;3.70;99.90
38428;DHT22;24211;49.980;19.776;2022-12-11T07:17:40;3.70;99.90
38428;DHT22;24211;49.980;19.776;2022-12-11T07:20:08;3.70;99.90
38428;DHT22;24211;49.980;19.776;2022-12-11T07:22:36;3.70;99.90
38428;DHT22;24211;49.980;19.776;2022-12-11T07:25:12;3.70;99.90
38428;DHT22;24211;49.980;19.776;2022-12-11T07:27:39;3.70;99.90
38428;DHT22;24211;49.980;19.776;2022-12-11T07:30:08;3.60;99.90
38428;DHT22;24211;49.980;19.776;2022-12-11T07:32:36;3.70;99.90
38428;DHT22;24211;49.980;19.776;2022-12-11T07:35:04;3.70;99.90
38428;DHT22;24211;49.980;19.776;2022-12-11T07:37:32;3.70;99.90
38428;DHT22;24211;49.980;19.776;2022-12-11T07:39:59;3.60;99.90
38428;DHT22;24211;49.980;19.776;2022-12-11T07:42:27;3.60;99.90
38428;DHT22;24211;49.980;19.776;2022-12-11T07:44:55;3.60;99.90
38428;DHT22;24211;49.980;19.776;2022-12-11T07:47:22;3.60;99.90
38428;DHT22;24211;49.980;19.776;2022-12-11T07:49:49;3.70;99.90
38428;DHT22;24211;49.980;19.776;2022-12-11T07:52:16;3.60;99.90
38428;DHT22;24211;49.980;19.776;2022-12-11T07:54:44;3.60;99.90
38428;DHT22;24211;49.980;19.776;2022-12-11T07:57:11;3.60;99.90
38428;DHT22;24211;49.980;19.776;2022-12-11T07:59:40;3.60;99.90
38428;DHT22;24211;49.980;19.776;2022-12-11T08:02:09;3.50;99.90
38428;DHT22;24211;49.980;19.776;2022-12-11T08:04:38;3.60;99.90
38428;DHT22;24211;49.980;19.776;2022-12-11T08:07:05;3.60;99.90
38428;DHT22;24211;49.980;19.776;2022-12-11T08:09:32;3.60;99.90
38428;DHT22;24211;49.980;19.776;2022-12-11T08:11:59;3.50;99.90
38428;DHT22;24211;49.980;19.776;2022-12-11T08:14:27;3.50;99.90
38428;DHT22;24211;49.980;19.776;2022-12-11T08:16:54;3.50;99.90
38428;DHT22;24211;49.980;19.776;2022-12-11T08:19:21;3.40;99.90
38428;DHT22;24211;49.980;19.776;2022-12-11T08:21:49;3.50;99.90
38428;DHT22;24211;49.980;19.776;2022-12-11T08:24:16;3.50;99.90
38428;DHT22;24211;49.980;19.776;2022-12-11T08:26:46;3.50;99.90
38428;DHT22;24211;49.980;19.776;2022-12-11T08:29:14;3.60;99.90
38428;DHT22;24211;49.980;19.776;2022-12-11T08:31:41;3.60;99.90
38428;DHT22;24211;49.980;19.776;2022-12-11T08:34:08;3.60;99.90
38428;DHT22;24211;49.980;19.776;2022-12-11T08:36:40;3.50;99.90
38428;DHT22;24211;49.980;19.776;2022-12-11T08:39:07;3.50;99.90
38428;DHT22;24211;49.980;19.776;2022-12-11T08:41:34;3.40;99.90
38428;DHT22;24211;49.980;19.776;2022-12-11T08:44:02;3.40;99.90
38428;DHT22;24211;49.980;19.776;2022-12-11T08:46:31;3.40;99.90
38428;DHT22;24211;49.980;19.776;2022-12-11T08:48:59;3.40;99.90
38428;DHT22;24211;49.980;19.776;2022-12-11T08:51:28;3.50;99.90
38428;DHT22;24211;49.980;19.776;2022-12-11T08:53:59;3.50;99.90
38428;DHT22;24211;49.980;19.776;2022-12-11T08:56:29;3.50;99.90
38428;DHT22;24211;49.980;19.776;2022-12-11T08:59:00;3.50;99.90
38428;DHT22;24211;49.980;19.776;2022-12-11T09:01:28;3.50;99.90
38428;DHT22;24211;49.980;19.776;2022-12-11T09:03:56;3.50;99.90
38428;DHT22;24211;49.980;19.776;2022-12-11T09:06:25;3.50;99.90
38428;DHT22;24211;49.980;19.776;2022-12-11T09:08:55;3.50;99.90
38428;DHT22;24211;49.980;19.776;2022-12-11T09:11:31;3.50;99.90
38428;DHT22;24211;49.980;19.776;2022-12-11T09:14:02;3.50;99.90
38428;DHT22;24211;49.980;19.776;2022-12-11T09:16:37;3.60;99.90
38428;DHT22;24211;49.980;19.776;2022-12-11T09:19:10;3.60;99.90
38428;DHT22;24211;49.980;19.776;2022-12-11T09:21:40;3.60;99.90
38428;DHT22;24211;49.980;19.776;2022-12-11T09:24:13;3.60;99.90
38428;DHT22;24211;49.980;19.776;2022-12-11T09:26:40;3.50;99.90
38428;DHT22;24211;49.980;19.776;2022-12-11T09:29:09;3.60;99.90
38428;DHT22;24211;49.980;19.776;2022-12-11T09:31:37;3.60;99.90
38428;DHT22;24211;49.980;19.776;2022-12-11T09:34:07;3.60;99.90
38428;DHT22;24211;49.980;19.776;2022-12-11T09:36:37;3.60;99.90
38428;DHT22;24211;49.980;19.776;2022-12-11T09:39:07;3.60;99.90
38428;DHT22;24211;49.980;19.776;2022-12-11T09:41:36;3.60;99.90
38428;DHT22;24211;49.980;19.776;2022-12-11T09:46:59;3.50;99.90
38428;DHT22;24211;49.980;19.776;2022-12-11T09:49:38;3.50;99.90
38428;DHT22;24211;49.980;19.776;2022-12-11T09:52:19;3.50;99.90
38428;DHT22;24211;49.980;19.776;2022-12-11T09:54:58;3.50;99.90
38428;DHT22;24211;49.980;19.776;2022-12-11T10:00:25;3.60;99.90
38428;DHT22;24211;49.980;19.776;2022-12-11T10:06:24;3.60;99.90
38428;DHT22;24211;49.980;19.776;2022-12-11T10:17:32;3.40;99.90
38428;DHT22;24211;49.980;19.776;2022-12-11T10:20:27;3.40;99.90
38428;DHT22;24211;49.980;19.776;2022-12-11T10:22:59;3.40;99.90
38428;DHT22;24211;49.980;19.776;2022-12-11T10:25:35;3.40;99.90
38428;DHT22;24211;49.980;19.776;2022-12-11T10:28:13;3.40;99.90
38428;DHT22;24211;49.980;19.776;2022-12-11T10:31:09;3.40;99.90
38428;DHT22;24211;49.980;19.776;2022-12-11T10:34:07;3.40;99.90
38428;DHT22;24211;49.980;19.776;2022-12-11T10:36:40;3.30;99.90
38428;DHT22;24211;49.980;19.776;2022-12-11T10:39:14;3.30;99.90
38428;DHT22;24211;49.980;19.776;2022-12-11T10:41:48;3.30;99.90
38428;DHT22;24211;49.980;19.776;2022-12-11T10:44:23;3.20;99.90
38428;DHT22;24211;49.980;19.776;2022-12-11T10:49:30;3.20;99.90
38428;DHT22;24211;49.980;19.776;2022-12-11T10:52:00;3.30;99.90
38428;DHT22;24211;49.980;19.776;2022-12-11T10:54:43;3.30;99.90
38428;DHT22;24211;49.980;19.776;2022-12-11T10:57:14;3.30;99.90
38428;DHT22;24211;49.980;19.776;2022-12-11T11:02:36;3.30;99.90
38428;DHT22;24211;49.980;19.776;2022-12-11T11:08:21;3.20;99.90
38428;DHT22;24211;49.980;19.776;2022-12-11T11:10:55;3.20;99.90
38428;DHT22;24211;49.980;19.776;2022-12-11T11:13:28;3.20;99.90
38428;DHT22;24211;49.980;19.776;2022-12-11T11:16:06;3.30;99.90
38428;DHT22;24211;49.980;19.776;2022-12-11T11:18:39;3.30;99.90
38428;DHT22;24211;49.980;19.776;2022-12-11T11:21:19;3.30;99.90
38428;DHT22;24211;49.980;19.776;2022-12-11T11:23:50;3.30;99.90
38428;DHT22;24211;49.980;19.776;2022-12-11T11:26:20;3.30;99.90
38428;DHT22;24211;49.980;19.776;2022-12-11T11:28:52;3.40;99.90
38428;DHT22;24211;49.980;19.776;2022-12-11T11:31:31;3.40;99.90
38428;DHT22;24211;49.980;19.776;2022-12-11T11:34:06;3.30;99.90
38428;DHT22;24211;49.980;19.776;2022-12-11T11:36:36;3.30;99.90
38428;DHT22;24211;49.980;19.776;2022-12-11T11:39:27;3.20;99.90
38428;DHT22;24211;49.980;19.776;2022-12-11T11:42:21;3.20;99.90
38428;DHT22;24211;49.980;19.776;2022-12-11T11:48:25;3.20;99.90
38428;DHT22;24211;49.980;19.776;2022-12-11T11:50:57;3.20;99.90
38428;DHT22;24211;49.980;19.776;2022-12-11T11:53:32;3.20;99.90
38428;DHT22;24211;49.980;19.776;2022-12-11T11:56:22;3.20;99.90
38428;DHT22;24211;49.980;19.776;2022-12-11T12:01:54;3.10;99.90
38428;DHT22;24211;49.980;19.776;2022-12-11T12:04:26;3.20;99.90
38428;DHT22;24211;49.980;19.776;2022-12-11T12:12:44;3.20;99.90
38428;DHT22;24211;49.980;19.776;2022-12-11T12:15:38;3.20;99.90
38428;DHT22;24211;49.980;19.776;2022-12-11T12:18:13;3.20;99.90
38428;DHT22;24211;49.980;19.776;2022-12-11T12:26:45;3.20;99.90
38428;DHT22;24211;49.980;19.776;2022-12-11T12:32:27;3.30;99.90
38428;DHT22;24211;49.980;19.776;2022-12-11T12:44:03;3.20;99.90
38428;DHT22;24211;49.980;19.776;2022-12-11T12:52:17;3.20;99.90
38428;DHT22;24211;49.980;19.776;2022-12-11T12:54:52;3.30;99.90
38428;DHT22;24211;49.980;19.776;2022-12-11T12:57:55;3.30;99.90
38428;DHT22;24211;49.980;19.776;2022-12-11T13:00:35;3.30;99.90
38428;DHT22;24211;49.980;19.776;2022-12-11T13:03:17;3.30;99.90
38428;DHT22;24211;49.980;19.776;2022-12-11T13:06:08;3.20;99.90
38428;DHT22;24211;49.980;19.776;2022-12-11T13:08:44;3.30;99.90
38428;DHT22;24211;49.980;19.776;2022-12-11T13:11:17;3.20;99.90
38428;DHT22;24211;49.980;19.776;2022-12-11T13:13:59;3.10;99.90
38428;DHT22;24211;49.980;19.776;2022-12-11T13:16:39;3.10;99.90
38428;DHT22;24211;49.980;19.776;2022-12-11T13:24:48;3.00;99.90
38428;DHT22;24211;49.980;19.776;2022-12-11T13:30:24;3.00;99.90
38428;DHT22;24211;49.980;19.776;2022-12-11T13:33:22;3.10;99.90
38428;DHT22;24211;49.980;19.776;2022-12-11T13:38:49;3.10;99.90
38428;DHT22;24211;49.980;19.776;2022-12-11T13:41:22;3.20;99.90
38428;DHT22;24211;49.980;19.776;2022-12-11T13:43:51;3.20;99.90
38428;DHT22;24211;49.980;19.776;2022-12-11T13:46:29;3.10;99.90
38428;DHT22;24211;49.980;19.776;2022-12-11T13:49:03;3.10;99.90
38428;DHT22;24211;49.980;19.776;2022-12-11T13:51:33;3.20;99.90
38428;DHT22;24211;49.980;19.776;2022-12-11T13:54:14;3.10;99.90
38428;DHT22;24211;49.980;19.776;2022-12-11T13:57:14;3.20;99.90
38428;DHT22;24211;49.980;19.776;2022-12-11T13:59:50;3.20;99.90
38428;DHT22;24211;49.980;19.776;2022-12-11T14:02:37;3.20;99.90
38428;DHT22;24211;49.980;19.776;2022-12-11T14:05:10;3.30;99.90
38428;DHT22;24211;49.980;19.776;2022-12-11T14:07:46;3.20;99.90
38428;DHT22;24211;49.980;19.776;2022-12-11T14:10:21;3.20;99.90
38428;DHT22;24211;49.980;19.776;2022-12-11T14:15:35;3.20;99.90
38428;DHT22;24211;49.980;19.776;2022-12-11T14:18:04;3.20;99.90
38428;DHT22;24211;49.980;19.776;2022-12-11T14:20:33;3.20;99.90
38428;DHT22;24211;49.980;19.776;2022-12-11T14:23:16;3.20;99.90
38428;DHT22;24211;49.980;19.776;2022-12-11T14:28:57;3.20;99.90
38428;DHT22;24211;49.980;19.776;2022-12-11T14:31:37;3.20;99.90
38428;DHT22;24211;49.980;19.776;2022-12-11T14:36:42;3.20;99.90
38428;DHT22;24211;49.980;19.776;2022-12-11T14:39:13;3.20;99.90
38428;DHT22;24211;49.980;19.776;2022-12-11T14:42:06;3.20;99.90
38428;DHT22;24211;49.980;19.776;2022-12-11T14:45:02;3.10;99.90
38428;DHT22;24211;49.980;19.776;2022-12-11T14:47:40;3.10;99.90
38428;DHT22;24211;49.980;19.776;2022-12-11T14:52:58;3.00;99.90
38428;DHT22;24211;49.980;19.776;2022-12-11T14:55:33;3.00;99.90
38428;DHT22;24211;49.980;19.776;2022-12-11T14:58:22;3.10;99.90
38428;DHT22;24211;49.980;19.776;2022-12-11T15:03:35;3.00;99.90
38428;DHT22;24211;49.980;19.776;2022-12-11T15:06:23;3.00;99.90
38428;DHT22;24211;49.980;19.776;2022-12-11T15:08:56;3.00;99.90
38428;DHT22;24211;49.980;19.776;2022-12-11T15:11:29;3.10;99.90
38428;DHT22;24211;49.980;19.776;2022-12-11T15:14:01;3.00;99.90
38428;DHT22;24211;49.980;19.776;2022-12-11T15:16:37;3.10;99.90
38428;DHT22;24211;49.980;19.776;2022-12-11T15:19:27;3.10;99.90
38428;DHT22;24211;49.980;19.776;2022-12-11T15:22:03;3.00;99.90
38428;DHT22;24211;49.980;19.776;2022-12-11T15:24:38;3.10;99.90
38428;DHT22;24211;49.980;19.776;2022-12-11T15:32:43;3.10;99.90
38428;DHT22;24211;49.980;19.776;2022-12-11T15:35:23;3.10;99.90
38428;DHT22;24211;49.980;19.776;2022-12-11T15:37:55;3.10;99.90
38428;DHT22;24211;49.980;19.776;2022-12-11T15:40:24;3.20;99.90
38428;DHT22;24211;49.980;19.776;2022-12-11T15:42:54;3.20;99.90
38428;DHT22;24211;49.980;19.776;2022-12-11T15:45:24;3.10;99.90
38428;DHT22;24211;49.980;19.776;2022-12-11T15:47:55;3.20;99.90
38428;DHT22;24211;49.980;19.776;2022-12-11T15:50:28;3.10;99.90
38428;DHT22;24211;49.980;19.776;2022-12-11T15:52:57;3.10;99.90
38428;DHT22;24211;49.980;19.776;2022-12-11T15:55:26;3.10;99.90
38428;DHT22;24211;49.980;19.776;2022-12-11T15:57:58;3.10;99.90
38428;DHT22;24211;49.980;19.776;2022-12-11T16:00:32;3.20;99.90
38428;DHT22;24211;49.980;19.776;2022-12-11T16:02:59;3.10;99.90
38428;DHT22;24211;49.980;19.776;2022-12-11T16:05:28;3.10;99.90
38428;DHT22;24211;49.980;19.776;2022-12-11T16:07:56;3.10;99.90
38428;DHT22;24211;49.980;19.776;2022-12-11T16:10:25;3.10;99.90
38428;DHT22;24211;49.980;19.776;2022-12-11T16:12:53;3.10;99.90
38428;DHT22;24211;49.980;19.776;2022-12-11T16:15:26;3.10;99.90
38428;DHT22;24211;49.980;19.776;2022-12-11T16:18:04;3.20;99.90
38428;DHT22;24211;49.980;19.776;2022-12-11T16:20:35;3.20;99.90
38428;DHT22;24211;49.980;19.776;2022-12-11T16:23:04;3.20;99.90
38428;DHT22;24211;49.980;19.776;2022-12-11T16:25:32;3.20;99.90
38428;DHT22;24211;49.980;19.776;2022-12-11T16:28:00;3.20;99.90
38428;DHT22;24211;49.980;19.776;2022-12-11T16:30:28;3.20;99.90
38428;DHT22;24211;49.980;19.776;2022-12-11T16:32:55;3.20;99.90
38428;DHT22;24211;49.980;19.776;2022-12-11T16:35:22;3.20;99.90
38428;DHT22;24211;49.980;19.776;2022-12-11T16:37:52;3.20;99.90
38428;DHT22;24211;49.980;19.776;2022-12-11T16:40:21;3.30;99.90
38428;DHT22;24211;49.980;19.776;2022-12-11T16:42:49;3.20;99.90
38428;DHT22;24211;49.980;19.776;2022-12-11T16:45:19;3.20;99.90
38428;DHT22;24211;49.980;19.776;2022-12-11T16:47:48;3.20;99.90
38428;DHT22;24211;49.980;19.776;2022-12-11T16:50:16;3.10;99.90
38428;DHT22;24211;49.980;19.776;2022-12-11T16:52:44;3.10;99.90
38428;DHT22;24211;49.980;19.776;2022-12-11T16:55:12;3.10;99.90
38428;DHT22;24211;49.980;19.776;2022-12-11T16:57:41;3.10;99.90
38428;DHT22;24211;49.980;19.776;2022-12-11T17:00:09;3.10;99.90
38428;DHT22;24211;49.980;19.776;2022-12-11T17:02:39;3.10;99.90
38428;DHT22;24211;49.980;19.776;2022-12-11T17:05:07;3.10;99.90
38428;DHT22;24211;49.980;19.776;2022-12-11T17:07:35;3.00;99.90
38428;DHT22;24211;49.980;19.776;2022-12-11T17:10:03;3.00;99.90
38428;DHT22;24211;49.980;19.776;2022-12-11T17:12:30;2.90;99.90
38428;DHT22;24211;49.980;19.776;2022-12-11T17:14:58;2.80;99.90
38428;DHT22;24211;49.980;19.776;2022-12-11T17:17:25;2.90;99.90
38428;DHT22;24211;49.980;19.776;2022-12-11T17:19:55;2.90;99.90
38428;DHT22;24211;49.980;19.776;2022-12-11T17:22:22;2.80;99.90
38428;DHT22;24211;49.980;19.776;2022-12-11T17:24:49;2.90;99.90
38428;DHT22;24211;49.980;19.776;2022-12-11T17:27:16;2.80;99.90
38428;DHT22;24211;49.980;19.776;2022-12-11T17:29:43;2.80;99.90
38428;DHT22;24211;49.980;19.776;2022-12-11T17:32:10;2.90;99.90
38428;DHT22;24211;49.980;19.776;2022-12-11T17:34:38;2.90;99.90
38428;DHT22;24211;49.980;19.776;2022-12-11T17:37:05;2.80;99.90
38428;DHT22;24211;49.980;19.776;2022-12-11T17:39:32;2.80;99.90
38428;DHT22;24211;49.980;19.776;2022-12-11T17:42:00;2.80;99.90
38428;DHT22;24211;49.980;19.776;2022-12-11T17:44:27;2.80;99.90
38428;DHT22;24211;49.980;19.776;2022-12-11T17:46:57;2.90;99.90
38428;DHT22;24211;49.980;19.776;2022-12-11T17:49:25;2.80;99.90
38428;DHT22;24211;49.980;19.776;2022-12-11T17:51:52;2.90;99.90